createdAt,value
2022-07-27T00:01:50.986Z,86.50
2022-07-27T00:04:22.071Z,86.80
2022-07-27T00:06:49.132Z,86.70
2022-07-27T00:09:18.209Z,86.70
2022-07-27T00:11:45.456Z,86.80
2022-07-27T00:14:12.297Z,86.70
2022-07-27T00:16:39.073Z,87.00
2022-07-27T00:19:09.056Z,87.10
2022-07-27T00:21:36.293Z,87.00
2022-07-27T00:24:11.238Z,87.30
2022-07-27T00:26:37.905Z,87.20
2022-07-27T00:29:04.811Z,87.00
2022-07-27T00:31:31.590Z,87.10
2022-07-27T00:33:58.428Z,87.50
2022-07-27T00:36:25.140Z,87.40
2022-07-27T00:38:52.533Z,87.30
2022-07-27T00:41:19.278Z,87.10
2022-07-27T00:43:53.568Z,87.40
2022-07-27T00:46:20.922Z,87.50
2022-07-27T00:48:47.924Z,87.50
2022-07-27T00:51:17.194Z,87.40
2022-07-27T00:53:44.045Z,87.40
2022-07-27T00:56:11.401Z,87.50
2022-07-27T00:58:38.750Z,88.00
2022-07-27T01:01:05.753Z,87.90
2022-07-27T01:03:32.592Z,87.70
2022-07-27T01:06:00.123Z,87.80
2022-07-27T01:08:28.824Z,87.90
2022-07-27T01:10:57.400Z,88.20
2022-07-27T01:13:26.127Z,88.20
2022-07-27T01:15:53.541Z,88.40
2022-07-27T01:18:35.181Z,88.50
2022-07-27T01:21:05.126Z,88.50
2022-07-27T01:23:34.845Z,88.60
2022-07-27T01:26:02.982Z,88.90
2022-07-27T01:28:29.727Z,88.90
2022-07-27T01:30:56.985Z,89.10
2022-07-27T01:33:25.892Z,89.10
2022-07-27T01:35:54.927Z,89.10
2022-07-27T01:38:21.881Z,89.40
2022-07-27T01:40:50.037Z,89.60
2022-07-27T01:43:16.762Z,89.50
2022-07-27T01:45:43.486Z,89.40
2022-07-27T01:48:10.525Z,89.50
2022-07-27T01:50:37.508Z,89.60
2022-07-27T01:53:04.556Z,89.70
2022-07-27T01:55:39.103Z,89.60
2022-07-27T01:58:07.158Z,89.80
2022-07-27T02:00:34.449Z,90.10
2022-07-27T02:03:01.858Z,90.20
2022-07-27T02:05:28.703Z,90.00
2022-07-27T02:07:55.406Z,90.10
2022-07-27T02:10:22.294Z,90.30
2022-07-27T02:12:48.956Z,90.50
2022-07-27T02:15:19.158Z,90.50
2022-07-27T02:17:47.267Z,90.80
2022-07-27T02:20:16.348Z,91.00
2022-07-27T02:22:43.917Z,91.40
2022-07-27T02:25:12.704Z,91.50
2022-07-27T02:27:41.675Z,91.80
2022-07-27T02:30:10.232Z,91.40
2022-07-27T02:32:36.957Z,91.80
2022-07-27T02:35:19.088Z,92.10
2022-07-27T02:37:47.566Z,92.20
2022-07-27T02:40:17.055Z,92.40
2022-07-27T02:42:44.102Z,92.50
2022-07-27T02:45:10.888Z,92.70
2022-07-27T02:47:39.969Z,92.90
2022-07-27T02:50:07.977Z,93.00
2022-07-27T02:52:34.657Z,93.30
2022-07-27T02:55:01.445Z,93.40
2022-07-27T02:57:28.367Z,93.50
2022-07-27T02:59:55.106Z,93.20
2022-07-27T03:02:24.081Z,93.50
2022-07-27T03:04:50.987Z,93.60
2022-07-27T03:07:17.876Z,93.80
2022-07-27T03:09:47.084Z,94.00
2022-07-27T03:12:17.432Z,94.10
2022-07-27T03:14:44.113Z,94.30
2022-07-27T03:17:11.113Z,94.40
2022-07-27T03:19:37.841Z,94.40
2022-07-27T03:22:04.544Z,94.60
2022-07-27T03:24:31.278Z,94.80
2022-07-27T03:26:58.194Z,94.90
2022-07-27T03:29:24.940Z,95.20
2022-07-27T03:31:56.393Z,95.30
2022-07-27T03:34:23.179Z,95.60
2022-07-27T03:36:50.490Z,95.70
2022-07-27T03:39:17.285Z,95.80
2022-07-27T03:41:43.979Z,95.60
2022-07-27T03:44:10.677Z,95.90
2022-07-27T03:46:37.363Z,96.00
2022-07-27T03:49:14.582Z,95.90
2022-07-27T03:51:42.638Z,96.30
2022-07-27T03:54:09.520Z,96.40
2022-07-27T03:56:36.397Z,96.40
2022-07-27T03:59:03.134Z,96.60
2022-07-27T04:01:30.070Z,96.70
2022-07-27T04:03:56.900Z,96.80
2022-07-27T04:06:23.674Z,96.80
2022-07-27T04:08:50.740Z,96.80
2022-07-27T04:11:20.679Z,96.90
2022-07-27T04:13:51.817Z,96.90
2022-07-27T04:16:19.670Z,97.00
2022-07-27T04:18:46.452Z,97.40
2022-07-27T04:21:13.365Z,97.40
2022-07-27T04:23:40.065Z,97.30
2022-07-27T04:26:06.769Z,97.60
2022-07-27T04:28:34.752Z,97.80
2022-07-27T04:31:01.428Z,97.80
2022-07-27T04:33:28.119Z,98.00
2022-07-27T04:35:55.644Z,98.00
2022-07-27T04:38:22.644Z,98.20
2022-07-27T04:40:50.481Z,98.40
2022-07-27T04:43:18.487Z,98.40
2022-07-27T04:45:45.189Z,98.30
2022-07-27T04:48:12.155Z,98.40
2022-07-27T04:50:43.284Z,98.50
2022-07-27T04:53:11.768Z,98.70
2022-07-27T04:55:43.084Z,98.70
2022-07-27T04:58:10.035Z,98.80
2022-07-27T05:00:36.779Z,98.60
2022-07-27T05:03:04.223Z,98.90
2022-07-27T05:05:31.084Z,98.80
2022-07-27T05:07:57.820Z,98.60
2022-07-27T05:10:25.514Z,98.60
2022-07-27T05:12:52.315Z,98.60
2022-07-27T05:15:19.255Z,98.50
2022-07-27T05:17:46.239Z,98.40
2022-07-27T05:20:13.774Z,98.20
2022-07-27T05:22:40.448Z,98.20
2022-07-27T05:25:08.083Z,98.20
2022-07-27T05:27:36.050Z,98.10
2022-07-27T05:30:04.423Z,98.10
2022-07-27T05:32:31.170Z,98.20
2022-07-27T05:34:57.890Z,97.50
2022-07-27T05:37:24.648Z,97.20
2022-07-27T05:39:51.303Z,97.10
2022-07-27T05:42:17.958Z,97.00
2022-07-27T05:44:44.624Z,96.50
2022-07-27T05:47:11.568Z,95.90
2022-07-27T05:49:38.492Z,95.90
2022-07-27T05:52:05.519Z,95.70
2022-07-27T05:54:32.206Z,95.10
2022-07-27T05:56:58.988Z,94.10
2022-07-27T05:59:25.686Z,93.60
2022-07-27T06:01:52.648Z,92.90
2022-07-27T06:04:19.344Z,92.10
2022-07-27T06:07:04.881Z,91.70
2022-07-27T06:09:31.593Z,89.80
2022-07-27T06:11:58.335Z,89.20
2022-07-27T06:14:25.021Z,88.70
2022-07-27T06:16:51.720Z,87.80
2022-07-27T06:19:18.601Z,87.40
2022-07-27T06:21:47.958Z,86.10
2022-07-27T06:24:19.891Z,86.30
2022-07-27T06:26:46.529Z,86.20
2022-07-27T06:29:13.423Z,85.60
2022-07-27T06:31:40.474Z,84.50
2022-07-27T06:34:11.817Z,84.00
2022-07-27T06:36:39.801Z,83.80
2022-07-27T06:39:06.509Z,83.90
2022-07-27T06:41:34.517Z,83.40
2022-07-27T06:44:01.439Z,82.50
2022-07-27T06:46:28.172Z,82.60
2022-07-27T06:48:56.663Z,82.60
2022-07-27T06:51:24.085Z,82.80
2022-07-27T06:53:53.160Z,82.00
2022-07-27T06:56:20.588Z,81.60
2022-07-27T06:58:47.282Z,80.70
2022-07-27T07:01:17.720Z,80.50
2022-07-27T07:03:44.667Z,79.90
2022-07-27T07:06:11.397Z,79.80
2022-07-27T07:08:38.156Z,79.60
2022-07-27T07:11:04.814Z,79.20
2022-07-27T07:13:36.762Z,79.30
2022-07-27T07:16:05.009Z,80.20
2022-07-27T07:18:31.759Z,80.40
2022-07-27T07:20:58.962Z,78.90
2022-07-27T07:23:25.676Z,79.00
2022-07-27T07:25:52.460Z,78.40
2022-07-27T07:28:22.228Z,77.60
2022-07-27T07:30:49.823Z,77.00
2022-07-27T07:33:16.520Z,76.60
2022-07-27T07:36:13.732Z,77.00
2022-07-27T07:38:30.191Z,76.10
2022-07-27T07:40:56.878Z,74.90
2022-07-27T07:43:23.659Z,75.40
2022-07-27T07:45:52.203Z,73.90
2022-07-27T07:48:20.720Z,74.50
2022-07-27T07:50:51.635Z,74.80
2022-07-27T07:53:23.878Z,74.40
2022-07-27T07:55:51.985Z,73.70
2022-07-27T07:58:19.187Z,72.90
2022-07-27T08:00:46.089Z,72.80
2022-07-27T08:03:12.862Z,74.20
2022-07-27T08:05:39.598Z,76.10
2022-07-27T08:08:06.776Z,77.10
2022-07-27T08:10:33.554Z,76.30
2022-07-27T08:13:00.273Z,75.70
2022-07-27T08:15:34.961Z,76.30
2022-07-27T08:18:07.490Z,76.50
2022-07-27T08:20:34.338Z,77.10
2022-07-27T08:23:01.213Z,75.50
2022-07-27T08:25:28.042Z,75.70
2022-07-27T08:27:55.471Z,75.40
2022-07-27T08:30:24.186Z,75.20
2022-07-27T08:32:58.138Z,75.30
2022-07-27T08:35:25.573Z,74.50
2022-07-27T08:37:52.365Z,74.40
2022-07-27T08:43:07.622Z,75.40
2022-07-27T08:45:35.363Z,73.30
2022-07-27T08:48:03.053Z,71.00
2022-07-27T08:50:34.644Z,70.10
2022-07-27T08:53:06.459Z,68.30
2022-07-27T08:55:36.089Z,67.30
2022-07-27T08:58:04.275Z,68.50
2022-07-27T09:00:32.901Z,69.90
2022-07-27T09:03:00.001Z,69.30
2022-07-27T09:05:27.797Z,70.90
2022-07-27T09:08:33.833Z,71.50
2022-07-27T09:11:03.287Z,72.60
2022-07-27T09:13:31.998Z,71.90
2022-07-27T09:16:18.746Z,74.00
2022-07-27T09:18:46.792Z,72.80
2022-07-27T09:21:16.838Z,71.60
2022-07-27T09:23:48.982Z,72.00
2022-07-27T09:26:32.417Z,72.70
2022-07-27T09:29:06.444Z,72.10
2022-07-27T09:31:43.827Z,71.10
2022-07-27T09:34:11.537Z,74.00
2022-07-27T09:36:56.088Z,71.20
2022-07-27T09:39:25.315Z,71.40
2022-07-27T09:41:55.294Z,70.10
2022-07-27T09:44:44.009Z,69.60
2022-07-27T09:47:28.649Z,70.40
2022-07-27T09:50:17.359Z,70.40
2022-07-27T09:52:44.232Z,71.50
2022-07-27T09:55:11.379Z,72.90
2022-07-27T09:57:55.844Z,72.90
2022-07-27T10:00:23.773Z,73.70
2022-07-27T10:02:52.571Z,73.00
2022-07-27T10:05:22.492Z,72.70
2022-07-27T10:07:51.341Z,73.20
2022-07-27T10:10:18.181Z,73.40
2022-07-27T10:12:49.182Z,72.80
2022-07-27T10:15:18.884Z,71.00
2022-07-27T10:17:46.493Z,70.40
2022-07-27T10:20:16.959Z,70.40
2022-07-27T10:22:58.623Z,71.30
2022-07-27T10:25:27.443Z,71.10
2022-07-27T10:28:17.541Z,69.30
2022-07-27T10:30:45.096Z,70.50
2022-07-27T10:33:47.098Z,71.40
2022-07-27T10:36:39.323Z,72.00
2022-07-27T10:39:07.269Z,72.00
2022-07-27T10:41:40.127Z,70.80
2022-07-27T10:44:18.739Z,71.30
2022-07-27T10:46:59.577Z,71.00
2022-07-27T10:49:40.386Z,71.00
2022-07-27T10:52:41.064Z,72.00
2022-07-27T10:55:08.779Z,71.50
2022-07-27T10:57:36.492Z,70.80
2022-07-27T11:00:13.365Z,70.50
2022-07-27T11:02:43.068Z,70.70
2022-07-27T11:05:42.586Z,70.90
2022-07-27T11:08:35.301Z,71.20
2022-07-27T11:10:47.508Z,70.40
2022-07-27T11:13:15.150Z,69.70
2022-07-27T11:15:55.849Z,69.80
2022-07-27T11:18:28.302Z,71.70
2022-07-27T11:21:27.877Z,69.00
2022-07-27T11:23:56.316Z,68.00
2022-07-27T11:26:25.041Z,68.10
2022-07-27T11:28:52.343Z,68.70
2022-07-27T11:31:32.715Z,68.90
2022-07-27T11:34:09.089Z,68.10
2022-07-27T11:36:41.885Z,67.70
2022-07-27T11:39:14.839Z,68.40
2022-07-27T11:44:30.333Z,66.30
2022-07-27T11:47:01.762Z,67.30
2022-07-27T11:49:31.379Z,66.20
2022-07-27T11:52:04.278Z,67.20
2022-07-27T11:54:35.955Z,67.40
2022-07-27T11:57:15.568Z,64.90
2022-07-27T11:59:44.242Z,67.10
2022-07-27T12:02:17.890Z,67.10
2022-07-27T12:04:47.089Z,67.70
2022-07-27T12:07:28.111Z,67.90
2022-07-27T12:09:57.176Z,68.10
2022-07-27T12:12:25.961Z,68.40
2022-07-27T12:15:16.374Z,69.80
2022-07-27T12:17:57.174Z,69.70
2022-07-27T12:20:32.551Z,69.00
2022-07-27T12:23:05.041Z,69.40
2022-07-27T12:25:33.302Z,68.90
2022-07-27T12:28:08.301Z,67.90
2022-07-27T12:30:41.199Z,67.70
2022-07-27T12:33:30.219Z,68.30
2022-07-27T12:35:58.583Z,67.80
2022-07-27T12:38:25.466Z,67.60
2022-07-27T12:41:00.177Z,68.30
2022-07-27T12:43:27.806Z,68.70
2022-07-27T12:45:55.872Z,68.50
2022-07-27T12:48:26.927Z,67.60
2022-07-27T12:51:06.692Z,66.10
2022-07-27T12:53:35.578Z,66.50
2022-07-27T12:56:06.312Z,66.10
2022-07-27T12:58:33.528Z,66.60
2022-07-27T13:01:00.742Z,65.80
2022-07-27T13:03:27.598Z,65.80
2022-07-27T13:05:54.304Z,65.60
2022-07-27T13:08:21.468Z,65.90
2022-07-27T13:10:52.053Z,64.70
2022-07-27T13:13:24.142Z,64.60
2022-07-27T13:15:50.868Z,65.80
2022-07-27T13:18:22.901Z,67.90
2022-07-27T13:20:50.374Z,68.40
2022-07-27T13:23:17.255Z,68.10
2022-07-27T13:25:44.183Z,67.80
2022-07-27T13:28:11.603Z,67.80
2022-07-27T13:30:38.336Z,67.50
2022-07-27T13:33:05.076Z,67.20
2022-07-27T13:35:31.825Z,67.80
2022-07-27T13:37:59.021Z,67.30
2022-07-27T13:40:25.687Z,66.90
2022-07-27T13:42:52.354Z,66.50
2022-07-27T13:45:19.317Z,65.90
2022-07-27T13:47:45.991Z,65.70
2022-07-27T13:50:19.000Z,65.90
2022-07-27T13:52:49.894Z,65.90
2022-07-27T13:55:17.579Z,66.00
2022-07-27T13:57:45.389Z,66.00
2022-07-27T14:00:12.840Z,66.50
2022-07-27T14:02:39.860Z,65.30
2022-07-27T14:05:09.628Z,65.10
2022-07-27T14:07:40.000Z,65.50
2022-07-27T14:10:25.621Z,64.90
2022-07-27T14:12:58.597Z,65.90
2022-07-27T14:15:25.781Z,66.70
2022-07-27T14:17:52.576Z,66.70
2022-07-27T14:20:19.279Z,66.80
2022-07-27T14:22:46.454Z,66.50
2022-07-27T14:25:14.682Z,66.30
2022-07-27T14:27:41.417Z,67.60
2022-07-27T14:30:08.993Z,66.90
2022-07-27T14:32:36.304Z,66.80
2022-07-27T14:35:03.825Z,67.60
2022-07-27T14:37:30.635Z,66.30
2022-07-27T14:39:58.363Z,66.10
2022-07-27T14:42:25.141Z,66.40
2022-07-27T14:44:52.856Z,66.40
2022-07-27T14:47:19.923Z,65.70
2022-07-27T14:49:46.733Z,64.60
2022-07-27T14:52:13.529Z,64.70
2022-07-27T14:54:45.235Z,65.20
2022-07-27T14:57:12.059Z,65.40
2022-07-27T14:59:39.193Z,64.40
2022-07-27T15:02:06.837Z,65.10
2022-07-27T15:04:34.023Z,65.30
2022-07-27T15:07:02.076Z,65.40
2022-07-27T15:09:30.304Z,65.10
2022-07-27T15:11:58.617Z,64.80
2022-07-27T15:14:26.211Z,63.70
2022-07-27T15:16:54.146Z,63.10
2022-07-27T15:19:20.992Z,63.10
2022-07-27T15:21:47.925Z,63.50
2022-07-27T15:24:14.798Z,62.80
2022-07-27T15:26:41.543Z,61.80
2022-07-27T15:29:11.037Z,62.50
2022-07-27T15:31:42.038Z,62.90
2022-07-27T15:34:08.888Z,63.30
2022-07-27T15:36:40.569Z,63.70
2022-07-27T15:39:10.878Z,63.10
2022-07-27T15:41:39.172Z,62.20
2022-07-27T15:44:06.588Z,63.10
2022-07-27T15:46:33.730Z,63.40
2022-07-27T15:49:01.148Z,63.60
2022-07-27T15:51:27.897Z,63.80
2022-07-27T15:53:55.774Z,64.30
2022-07-27T15:56:23.014Z,63.50
2022-07-27T15:58:50.298Z,64.10
2022-07-27T16:01:17.062Z,64.00
2022-07-27T16:03:48.854Z,65.40
2022-07-27T16:06:15.910Z,65.00
2022-07-27T16:08:44.062Z,65.60
2022-07-27T16:11:10.954Z,65.40
2022-07-27T16:13:37.628Z,64.00
2022-07-27T16:16:26.416Z,64.00
2022-07-27T16:18:54.286Z,63.50
2022-07-27T16:21:22.473Z,62.60
2022-07-27T16:23:50.292Z,63.40
2022-07-27T16:26:17.248Z,62.60
2022-07-27T16:28:46.576Z,63.20
2022-07-27T16:31:15.783Z,63.00
2022-07-27T16:33:45.233Z,63.30
2022-07-27T16:36:12.553Z,63.20
2022-07-27T16:38:50.243Z,62.70
2022-07-27T16:41:23.074Z,62.40
2022-07-27T16:43:50.074Z,63.10
2022-07-27T16:46:17.596Z,62.60
2022-07-27T16:48:45.058Z,62.50
2022-07-27T16:51:15.470Z,63.00
2022-07-27T16:53:44.150Z,63.40
2022-07-27T16:56:11.520Z,63.90
2022-07-27T16:58:39.230Z,63.70
2022-07-27T17:01:06.129Z,63.90
2022-07-27T17:03:32.873Z,64.00
2022-07-27T17:06:03.677Z,63.80
2022-07-27T17:08:32.574Z,63.90
2022-07-27T17:11:00.451Z,64.90
2022-07-27T17:13:33.591Z,65.70
2022-07-27T17:16:01.876Z,66.20
2022-07-27T17:18:28.773Z,66.50
2022-07-27T17:20:55.459Z,67.00
2022-07-27T17:23:22.492Z,67.20
2022-07-27T17:25:49.478Z,67.50
2022-07-27T17:28:16.577Z,67.50
2022-07-27T17:30:43.328Z,67.20
2022-07-27T17:33:10.035Z,67.60
2022-07-27T17:35:36.820Z,67.30
2022-07-27T17:38:06.570Z,67.30
2022-07-27T17:40:33.994Z,67.60
2022-07-27T17:43:00.673Z,67.70
2022-07-27T17:45:27.558Z,67.90
2022-07-27T17:47:54.796Z,67.60
2022-07-27T17:50:21.506Z,67.70
2022-07-27T17:52:48.203Z,67.90
2022-07-27T17:55:15.018Z,67.40
2022-07-27T17:57:41.696Z,67.00
2022-07-27T18:00:10.926Z,67.20
2022-07-27T18:02:37.593Z,67.30
2022-07-27T18:05:04.597Z,67.70
2022-07-27T18:07:39.113Z,67.30
2022-07-27T18:10:08.209Z,67.50
2022-07-27T18:12:35.451Z,66.70
2022-07-27T18:15:21.107Z,67.00
2022-07-27T18:17:47.791Z,67.20
2022-07-27T18:20:14.519Z,67.70
2022-07-27T18:22:41.224Z,69.00
2022-07-27T18:25:09.022Z,68.20
2022-07-27T18:27:36.267Z,67.70
2022-07-27T18:30:05.603Z,68.20
2022-07-27T18:32:33.243Z,71.10
2022-07-27T18:35:01.359Z,71.60
2022-07-27T18:37:28.240Z,72.20
2022-07-27T18:39:55.003Z,69.40
2022-07-27T18:42:21.747Z,69.60
2022-07-27T18:44:48.456Z,70.60
2022-07-27T18:47:15.151Z,70.30
2022-07-27T18:49:41.820Z,70.70
2022-07-27T18:52:08.749Z,70.10
2022-07-27T18:54:35.446Z,70.80
2022-07-27T18:57:02.124Z,71.90
2022-07-27T18:59:29.972Z,72.90
2022-07-27T19:01:56.970Z,73.40
2022-07-27T19:04:24.807Z,73.60
2022-07-27T19:06:52.616Z,73.90
2022-07-27T19:09:19.375Z,73.40
2022-07-27T19:11:46.129Z,74.60
2022-07-27T19:14:12.925Z,75.30
2022-07-27T19:16:39.662Z,74.50
2022-07-27T19:19:10.289Z,74.90
2022-07-27T19:21:41.193Z,75.60
2022-07-27T19:24:07.986Z,75.70
2022-07-27T19:26:34.862Z,75.20
2022-07-27T19:29:01.566Z,75.90
2022-07-27T19:31:28.284Z,76.10
2022-07-27T19:33:56.017Z,76.60
2022-07-27T19:36:23.097Z,76.30
2022-07-27T19:38:50.901Z,76.40
2022-07-27T19:41:18.363Z,76.50
2022-07-27T19:43:45.158Z,76.20
2022-07-27T19:46:12.032Z,76.30
2022-07-27T19:48:38.863Z,76.50
2022-07-27T19:51:07.337Z,75.80
2022-07-27T19:53:35.440Z,75.60
2022-07-27T19:56:02.617Z,75.60
2022-07-27T19:58:29.602Z,75.50
2022-07-27T20:00:56.372Z,76.10
2022-07-27T20:03:23.208Z,75.80
2022-07-27T20:05:49.950Z,75.60
2022-07-27T20:08:16.829Z,77.00
2022-07-27T20:10:44.015Z,76.00
2022-07-27T20:13:10.865Z,75.60
2022-07-27T20:15:37.700Z,74.50
2022-07-27T20:18:04.820Z,74.60
2022-07-27T20:20:31.648Z,74.50
2022-07-27T20:22:58.458Z,74.50
2022-07-27T20:25:25.330Z,75.20
2022-07-27T20:27:52.447Z,75.60
2022-07-27T20:30:19.907Z,75.50
2022-07-27T20:32:48.717Z,75.70
2022-07-27T20:35:16.322Z,75.90
2022-07-27T20:37:44.721Z,76.20
2022-07-27T20:40:12.641Z,76.20
2022-07-27T20:42:41.077Z,76.20
2022-07-27T20:45:11.039Z,76.20
2022-07-27T20:47:38.356Z,76.50
2022-07-27T20:50:10.827Z,76.90
2022-07-27T20:52:39.170Z,77.10
2022-07-27T20:55:09.637Z,77.60
2022-07-27T20:57:36.592Z,78.30
2022-07-27T21:00:06.356Z,77.40
2022-07-27T21:02:33.352Z,77.10
2022-07-27T21:05:00.173Z,77.40
2022-07-27T21:07:27.106Z,77.40
2022-07-27T21:09:53.797Z,77.50
2022-07-27T21:12:20.483Z,77.80
2022-07-27T21:14:47.152Z,77.90
2022-07-27T21:17:13.866Z,78.10
2022-07-27T21:19:40.522Z,78.30
2022-07-27T21:22:07.292Z,77.90
2022-07-27T21:24:34.016Z,77.90
2022-07-27T21:27:04.831Z,77.90
2022-07-27T21:29:31.869Z,78.20
2022-07-27T21:31:58.727Z,78.30
2022-07-27T21:34:25.627Z,78.50
2022-07-27T21:36:52.396Z,78.50
2022-07-27T21:39:19.988Z,78.70
2022-07-27T21:41:46.907Z,78.70
2022-07-27T21:44:14.105Z,78.70
2022-07-27T21:46:41.717Z,78.80
2022-07-27T21:49:10.114Z,78.70
2022-07-27T21:51:36.886Z,78.80
2022-07-27T21:54:03.675Z,79.00
2022-07-27T21:56:30.386Z,79.10
2022-07-27T21:58:57.137Z,79.30
2022-07-27T22:01:23.935Z,79.30
2022-07-27T22:03:51.020Z,79.40
2022-07-27T22:06:18.117Z,79.80
2022-07-27T22:08:46.130Z,79.70
2022-07-27T22:11:13.467Z,79.90
2022-07-27T22:13:40.242Z,80.10
2022-07-27T22:16:07.458Z,80.10
2022-07-27T22:18:34.758Z,79.80
2022-07-27T22:21:01.470Z,80.30
2022-07-27T22:23:28.193Z,80.40
2022-07-27T22:25:55.268Z,80.60
2022-07-27T22:28:25.521Z,80.70
2022-07-27T22:31:00.106Z,81.10
2022-07-27T22:33:40.633Z,81.10
2022-07-27T22:36:11.873Z,81.20
2022-07-27T22:38:39.089Z,81.40
2022-07-27T22:41:05.817Z,81.50
2022-07-27T22:43:32.597Z,81.40
2022-07-27T22:46:00.191Z,81.40
2022-07-27T22:48:27.219Z,81.40
2022-07-27T22:50:53.969Z,81.80
2022-07-27T22:53:20.816Z,81.90
2022-07-27T22:55:47.568Z,82.40
2022-07-27T22:58:14.282Z,82.40
2022-07-27T23:00:41.236Z,82.40
2022-07-27T23:03:08.054Z,82.50
2022-07-27T23:05:34.864Z,82.80
2022-07-27T23:08:01.611Z,82.80
2022-07-27T23:10:46.799Z,83.10
2022-07-27T23:13:15.134Z,83.00
2022-07-27T23:15:42.689Z,83.20
2022-07-27T23:18:09.692Z,83.40
2022-07-27T23:20:37.250Z,83.80
2022-07-27T23:23:05.313Z,83.70
2022-07-27T23:25:42.315Z,83.80
2022-07-27T23:28:09.048Z,84.10
2022-07-27T23:30:35.808Z,84.30
2022-07-27T23:33:02.595Z,84.30
2022-07-27T23:35:29.573Z,84.60
2022-07-27T23:37:56.565Z,84.70
2022-07-27T23:40:23.472Z,84.90
2022-07-27T23:42:50.424Z,84.90
2022-07-27T23:45:17.273Z,85.00
2022-07-27T23:47:44.225Z,85.20
2022-07-27T23:50:11.461Z,85.40
2022-07-27T23:52:38.267Z,85.30
2022-07-27T23:55:05.598Z,85.60
2022-07-27T23:57:32.482Z,85.70
2022-07-27T23:59:59.402Z,86.00
